createdAt,value
2023-06-30T00:00:31.588Z,4.10
2023-06-30T00:03:26.744Z,4.10
2023-06-30T00:06:00.072Z,4.40
2023-06-30T00:08:31.718Z,4.10
2023-06-30T00:11:04.370Z,3.10
2023-06-30T00:13:35.344Z,2.80
2023-06-30T00:16:07.008Z,2.60
2023-06-30T00:18:38.881Z,2.90
2023-06-30T00:21:09.442Z,2.90
2023-06-30T00:23:41.325Z,3.00
2023-06-30T00:26:13.083Z,3.30
2023-06-30T00:28:45.390Z,3.30
2023-06-30T00:31:16.414Z,2.60
2023-06-30T00:33:47.906Z,3.00
2023-06-30T00:36:19.716Z,3.80
2023-06-30T00:38:53.714Z,4.30
2023-06-30T00:41:24.904Z,4.80
2023-06-30T00:43:58.606Z,4.50
2023-06-30T00:46:30.552Z,4.50
2023-06-30T00:49:02.271Z,4.30
2023-06-30T00:51:35.418Z,4.20
2023-06-30T00:54:07.489Z,3.50
2023-06-30T00:56:39.036Z,3.20
2023-06-30T00:59:09.584Z,3.60
2023-06-30T01:01:59.257Z,3.20
2023-06-30T01:04:40.334Z,3.50
2023-06-30T01:07:19.621Z,3.40
2023-06-30T01:10:03.745Z,3.30
2023-06-30T01:12:37.127Z,3.40
2023-06-30T01:15:09.677Z,3.50
2023-06-30T01:17:55.343Z,3.70
2023-06-30T01:20:36.120Z,4.10
2023-06-30T01:23:20.230Z,4.50
2023-06-30T01:25:53.949Z,5.40
2023-06-30T01:28:25.036Z,5.20
2023-06-30T01:30:58.521Z,5.30
2023-06-30T01:33:31.043Z,5.70
2023-06-30T01:36:03.619Z,4.70
2023-06-30T01:38:35.796Z,3.90
2023-06-30T01:41:11.290Z,4.20
2023-06-30T01:43:46.099Z,4.50
2023-06-30T01:46:18.666Z,5.50
2023-06-30T01:48:50.905Z,4.10
2023-06-30T01:51:22.978Z,4.30
2023-06-30T01:53:54.400Z,4.20
2023-06-30T01:56:28.341Z,3.90
2023-06-30T01:59:02.386Z,4.20
2023-06-30T02:01:34.596Z,4.10
2023-06-30T02:04:06.481Z,4.10
2023-06-30T02:06:37.967Z,4.50
2023-06-30T02:09:10.111Z,5.00
2023-06-30T02:11:43.890Z,5.00
2023-06-30T02:14:14.765Z,5.00
2023-06-30T02:16:46.089Z,5.10
2023-06-30T02:19:18.720Z,5.70
2023-06-30T02:21:51.539Z,5.60
2023-06-30T02:24:23.721Z,5.60
2023-06-30T02:27:01.397Z,5.50
2023-06-30T02:29:34.907Z,6.00
2023-06-30T02:32:07.796Z,6.20
2023-06-30T02:34:40.937Z,5.60
2023-06-30T02:37:14.468Z,5.60
2023-06-30T02:39:48.166Z,5.70
2023-06-30T02:42:19.530Z,4.40
2023-06-30T02:44:51.357Z,4.40
2023-06-30T02:47:22.452Z,5.10
2023-06-30T02:49:54.764Z,5.70
2023-06-30T02:52:26.643Z,5.90
2023-06-30T02:55:00.521Z,6.00
2023-06-30T02:57:31.868Z,6.70
2023-06-30T03:00:05.359Z,5.90
2023-06-30T03:02:38.270Z,4.30
2023-06-30T03:05:11.329Z,4.00
2023-06-30T03:07:44.020Z,4.30
2023-06-30T03:10:15.473Z,5.60
2023-06-30T03:12:47.041Z,4.30
2023-06-30T03:15:19.401Z,4.60
2023-06-30T03:17:51.745Z,4.30
2023-06-30T03:20:23.855Z,4.40
2023-06-30T03:22:58.345Z,4.60
2023-06-30T03:25:30.969Z,4.70
2023-06-30T03:28:03.411Z,4.30
2023-06-30T03:30:36.073Z,4.70
2023-06-30T03:33:09.867Z,4.50
2023-06-30T03:35:40.912Z,4.50
2023-06-30T03:38:13.931Z,4.20
2023-06-30T03:40:46.184Z,4.40
2023-06-30T03:43:18.772Z,4.50
2023-06-30T03:45:53.076Z,5.20
2023-06-30T03:48:26.564Z,5.10
2023-06-30T03:51:00.277Z,4.70
2023-06-30T03:53:33.237Z,5.00
2023-06-30T03:56:05.400Z,4.90
2023-06-30T03:58:36.784Z,5.20
2023-06-30T04:01:10.058Z,4.70
2023-06-30T04:03:41.735Z,4.80
2023-06-30T04:06:12.877Z,4.80
2023-06-30T04:08:44.338Z,5.00
2023-06-30T04:11:16.522Z,5.30
2023-06-30T04:13:49.921Z,5.40
2023-06-30T04:16:21.524Z,5.40
2023-06-30T04:18:55.382Z,5.60
2023-06-30T04:21:29.258Z,6.00
2023-06-30T04:24:00.592Z,6.10
2023-06-30T04:26:33.670Z,5.50
2023-06-30T04:29:04.460Z,5.90
2023-06-30T04:31:34.053Z,5.80
2023-06-30T04:34:04.261Z,5.60
2023-06-30T04:36:34.190Z,6.20
2023-06-30T04:39:04.388Z,5.60
2023-06-30T04:41:34.549Z,6.00
2023-06-30T04:44:04.078Z,5.80
2023-06-30T04:46:33.967Z,6.50
2023-06-30T04:49:06.404Z,6.10
2023-06-30T04:51:37.324Z,5.90
2023-06-30T04:54:06.796Z,6.40
2023-06-30T04:56:36.112Z,6.30
2023-06-30T04:59:06.769Z,6.10
2023-06-30T05:01:36.303Z,6.10
2023-06-30T05:04:06.422Z,6.00
2023-06-30T05:06:36.399Z,6.30
2023-06-30T05:09:06.704Z,6.30
2023-06-30T05:11:36.477Z,6.10
2023-06-30T05:14:06.970Z,6.30
2023-06-30T05:16:36.602Z,6.60
2023-06-30T05:19:06.241Z,6.70
2023-06-30T05:21:38.274Z,6.70
2023-06-30T05:24:09.578Z,7.00
2023-06-30T05:26:41.432Z,7.90
2023-06-30T05:29:11.411Z,7.70
2023-06-30T05:31:40.609Z,7.80
2023-06-30T05:34:11.856Z,7.20
2023-06-30T05:36:46.995Z,7.70
2023-06-30T05:39:18.112Z,6.50
2023-06-30T05:41:48.232Z,6.60
2023-06-30T05:44:18.541Z,6.80
2023-06-30T05:46:50.018Z,6.40
2023-06-30T05:49:20.650Z,6.40
2023-06-30T05:51:51.104Z,6.60
2023-06-30T05:54:20.723Z,6.40
2023-06-30T05:56:50.368Z,6.50
2023-06-30T05:59:20.337Z,6.30
2023-06-30T06:01:50.553Z,6.20
2023-06-30T06:04:21.575Z,6.70
2023-06-30T06:06:51.175Z,6.80
2023-06-30T06:09:20.722Z,6.70
2023-06-30T06:11:50.716Z,6.70
2023-06-30T06:14:21.617Z,6.70
2023-06-30T06:16:52.259Z,7.50
2023-06-30T06:19:25.508Z,7.50
2023-06-30T06:21:58.286Z,7.40
2023-06-30T06:24:29.007Z,8.40
2023-06-30T06:26:59.745Z,8.10
2023-06-30T06:29:29.588Z,8.40
2023-06-30T06:32:00.518Z,8.10
2023-06-30T06:34:30.611Z,7.60
2023-06-30T06:37:00.025Z,7.30
2023-06-30T06:39:30.114Z,8.10
2023-06-30T06:42:00.281Z,7.80
2023-06-30T06:44:30.335Z,7.20
2023-06-30T06:47:37.966Z,7.60
2023-06-30T06:50:08.528Z,7.10
2023-06-30T06:52:40.264Z,7.10
2023-06-30T06:55:10.664Z,7.30
2023-06-30T06:57:40.053Z,7.40
2023-06-30T07:00:10.567Z,7.30
2023-06-30T07:02:41.946Z,7.50
2023-06-30T07:05:13.844Z,7.70
2023-06-30T07:07:44.323Z,7.60
2023-06-30T07:10:14.847Z,7.40
2023-06-30T07:12:44.394Z,7.80
2023-06-30T07:15:13.727Z,7.00
2023-06-30T07:17:43.447Z,7.30
2023-06-30T07:20:14.535Z,6.90
2023-06-30T07:22:44.037Z,7.10
2023-06-30T07:25:13.882Z,7.10
2023-06-30T07:27:54.824Z,6.80
2023-06-30T07:30:26.988Z,6.90
2023-06-30T07:32:57.245Z,6.90
2023-06-30T07:35:28.092Z,6.80
2023-06-30T07:37:58.969Z,6.70
2023-06-30T07:40:38.447Z,6.60
2023-06-30T07:43:16.311Z,7.00
2023-06-30T07:45:46.322Z,6.30
2023-06-30T07:48:16.155Z,6.80
2023-06-30T07:50:55.419Z,6.20
2023-06-30T07:53:36.125Z,6.60
2023-06-30T07:56:06.674Z,6.90
2023-06-30T07:58:36.908Z,6.70
2023-06-30T08:01:06.600Z,6.50
2023-06-30T08:03:36.813Z,6.50
2023-06-30T08:06:07.243Z,6.80
2023-06-30T08:08:37.587Z,6.50
2023-06-30T08:11:08.168Z,6.30
2023-06-30T08:13:40.129Z,6.50
2023-06-30T08:16:11.378Z,6.70
2023-06-30T08:18:52.280Z,6.50
2023-06-30T08:21:23.648Z,6.40
2023-06-30T08:23:53.629Z,6.80
2023-06-30T08:26:23.425Z,6.70
2023-06-30T08:28:53.348Z,6.60
2023-06-30T08:31:25.383Z,6.60
2023-06-30T08:33:55.941Z,6.70
2023-06-30T08:36:26.573Z,6.40
2023-06-30T08:38:56.792Z,7.00
2023-06-30T08:41:27.383Z,6.70
2023-06-30T08:43:58.829Z,6.90
2023-06-30T08:46:30.196Z,6.50
2023-06-30T08:48:59.949Z,6.70
2023-06-30T08:51:30.217Z,6.80
2023-06-30T08:54:00.521Z,6.30
2023-06-30T08:56:31.930Z,6.50
2023-06-30T08:59:01.992Z,7.20
2023-06-30T09:01:32.786Z,6.50
2023-06-30T09:04:03.980Z,6.50
2023-06-30T09:06:39.819Z,6.70
2023-06-30T09:09:13.598Z,6.60
2023-06-30T09:11:42.754Z,6.70
2023-06-30T09:14:13.189Z,6.50
2023-06-30T09:16:43.081Z,6.70
2023-06-30T09:19:14.453Z,6.50
2023-06-30T09:21:44.039Z,6.60
2023-06-30T09:24:13.988Z,6.40
2023-06-30T09:26:43.159Z,6.80
2023-06-30T09:29:14.844Z,6.50
2023-06-30T09:31:44.420Z,6.60
2023-06-30T09:34:15.279Z,6.40
2023-06-30T09:36:49.221Z,6.00
2023-06-30T09:39:19.526Z,6.60
2023-06-30T09:41:50.034Z,6.60
2023-06-30T09:44:23.692Z,6.60
2023-06-30T09:46:56.359Z,6.90
2023-06-30T09:49:34.279Z,7.30
2023-06-30T09:52:05.478Z,7.00
2023-06-30T09:54:44.612Z,7.40
2023-06-30T09:57:14.445Z,7.30
2023-06-30T09:59:47.484Z,7.50
2023-06-30T10:02:18.184Z,6.90
2023-06-30T10:04:48.142Z,6.90
2023-06-30T10:07:18.125Z,7.00
2023-06-30T10:09:49.894Z,7.20
2023-06-30T10:12:20.908Z,7.30
2023-06-30T10:14:53.067Z,7.10
2023-06-30T10:17:23.630Z,7.80
2023-06-30T10:19:55.658Z,7.80
2023-06-30T10:22:25.537Z,7.00
2023-06-30T10:24:57.282Z,7.10
2023-06-30T10:27:28.204Z,7.60
2023-06-30T10:29:59.005Z,7.20
2023-06-30T10:32:30.069Z,7.10
2023-06-30T10:35:01.802Z,6.90
2023-06-30T10:37:31.967Z,7.60
2023-06-30T10:40:03.449Z,7.40
2023-06-30T10:42:44.193Z,7.00
2023-06-30T10:45:14.180Z,6.90
2023-06-30T10:47:48.043Z,7.10
2023-06-30T10:50:19.184Z,6.60
2023-06-30T10:52:56.546Z,6.90
2023-06-30T10:55:31.135Z,6.80
2023-06-30T10:58:05.661Z,6.70
2023-06-30T11:00:37.915Z,6.70
2023-06-30T11:03:08.264Z,7.00
2023-06-30T11:05:38.572Z,6.90
2023-06-30T11:08:11.875Z,6.90
2023-06-30T11:10:49.490Z,6.90
2023-06-30T11:13:38.692Z,7.00
2023-06-30T11:16:10.374Z,7.10
2023-06-30T11:18:40.961Z,6.80
2023-06-30T11:21:10.707Z,7.10
2023-06-30T11:23:41.746Z,7.10
2023-06-30T11:26:15.572Z,7.40
2023-06-30T11:28:50.894Z,7.40
2023-06-30T11:31:21.162Z,7.00
2023-06-30T11:33:51.551Z,7.60
2023-06-30T11:36:22.525Z,7.40
2023-06-30T11:38:53.207Z,7.40
2023-06-30T11:41:25.725Z,7.50
2023-06-30T11:44:00.113Z,7.40
2023-06-30T11:46:38.207Z,7.30
2023-06-30T11:49:11.323Z,7.20
2023-06-30T11:51:42.489Z,7.10
2023-06-30T11:54:16.041Z,7.00
2023-06-30T11:56:46.011Z,7.60
2023-06-30T11:59:15.730Z,7.50
2023-06-30T12:01:47.654Z,7.80
2023-06-30T12:04:18.120Z,7.80
2023-06-30T12:06:48.711Z,6.10
2023-06-30T12:09:18.866Z,5.30
2023-06-30T12:11:52.444Z,4.90
2023-06-30T12:14:28.432Z,5.50
2023-06-30T12:16:59.837Z,4.80
2023-06-30T12:19:30.236Z,4.30
2023-06-30T12:22:08.704Z,4.40
2023-06-30T12:24:40.568Z,4.90
2023-06-30T12:27:11.360Z,4.90
2023-06-30T12:29:48.281Z,4.50
2023-06-30T12:32:19.572Z,4.50
2023-06-30T12:35:04.123Z,4.00
2023-06-30T12:37:37.692Z,4.30
2023-06-30T12:40:10.730Z,4.70
2023-06-30T12:42:46.585Z,4.30
2023-06-30T12:45:17.660Z,4.30
2023-06-30T12:47:47.721Z,4.40
2023-06-30T12:50:18.413Z,4.10
2023-06-30T12:52:50.009Z,4.30
2023-06-30T12:55:23.858Z,4.10
2023-06-30T12:57:54.039Z,3.90
2023-06-30T13:00:24.315Z,4.30
2023-06-30T13:02:56.453Z,4.40
2023-06-30T13:05:26.175Z,5.00
2023-06-30T13:07:58.367Z,4.60
2023-06-30T13:10:29.245Z,4.80
2023-06-30T13:12:59.964Z,3.80
2023-06-30T13:15:34.131Z,3.90
2023-06-30T13:18:03.416Z,4.20
2023-06-30T13:20:34.000Z,4.10
2023-06-30T13:23:14.555Z,4.00
2023-06-30T13:25:53.415Z,3.90
2023-06-30T13:28:24.712Z,3.80
2023-06-30T13:30:55.612Z,4.20
2023-06-30T13:33:27.459Z,4.20
2023-06-30T13:35:57.610Z,4.40
2023-06-30T13:38:27.624Z,4.40
2023-06-30T13:40:57.547Z,4.80
2023-06-30T13:43:29.682Z,4.70
2023-06-30T13:46:02.535Z,4.60
2023-06-30T13:48:34.717Z,4.60
2023-06-30T13:51:06.284Z,4.50
2023-06-30T13:53:38.131Z,4.90
2023-06-30T13:56:09.487Z,4.60
2023-06-30T13:58:41.951Z,4.90
2023-06-30T14:01:16.508Z,4.70
2023-06-30T14:03:52.299Z,4.90
2023-06-30T14:06:22.146Z,5.20
2023-06-30T14:08:51.936Z,5.20
2023-06-30T14:11:22.667Z,5.00
2023-06-30T14:13:52.035Z,5.00
2023-06-30T14:16:22.307Z,5.00
2023-06-30T14:18:52.787Z,5.40
2023-06-30T14:21:22.833Z,5.10
2023-06-30T14:23:53.193Z,5.60
2023-06-30T14:26:23.744Z,5.90
2023-06-30T14:28:56.994Z,12.60
2023-06-30T14:31:27.052Z,14.60
2023-06-30T14:33:56.598Z,7.70
2023-06-30T14:36:27.764Z,7.20
2023-06-30T14:38:57.500Z,6.40
2023-06-30T14:41:27.538Z,6.50
2023-06-30T14:43:59.452Z,5.90
2023-06-30T14:46:31.539Z,6.40
2023-06-30T14:49:01.540Z,6.10
2023-06-30T14:51:30.815Z,6.10
2023-06-30T14:54:00.967Z,6.80
2023-06-30T14:56:31.323Z,6.70
2023-06-30T14:59:00.723Z,6.80
2023-06-30T15:01:30.290Z,7.70
2023-06-30T15:04:00.832Z,7.20
2023-06-30T15:06:30.797Z,7.70
2023-06-30T15:08:59.865Z,7.20
2023-06-30T15:11:29.956Z,7.30
2023-06-30T15:14:00.059Z,7.70
2023-06-30T15:16:29.424Z,7.90
2023-06-30T15:18:59.443Z,8.00
2023-06-30T15:21:29.118Z,7.90
2023-06-30T15:23:58.471Z,7.80
2023-06-30T15:26:28.225Z,7.30
2023-06-30T15:28:58.614Z,7.90
2023-06-30T15:34:03.618Z,8.30
2023-06-30T15:36:33.493Z,7.80
2023-06-30T15:39:05.089Z,8.30
2023-06-30T15:41:34.573Z,7.90
2023-06-30T15:44:05.536Z,7.10
2023-06-30T15:46:36.250Z,7.60
2023-06-30T15:49:06.764Z,7.30
2023-06-30T15:51:36.380Z,7.40
2023-06-30T15:54:06.543Z,7.80
2023-06-30T15:56:36.380Z,8.00
2023-06-30T15:59:05.954Z,7.40
2023-06-30T16:01:36.044Z,7.70
2023-06-30T16:04:06.314Z,7.40
2023-06-30T16:06:36.350Z,7.60
2023-06-30T16:09:06.344Z,7.40
2023-06-30T16:11:36.924Z,7.50
2023-06-30T16:14:07.292Z,6.90
2023-06-30T16:16:37.582Z,7.60
2023-06-30T16:19:07.469Z,7.50
2023-06-30T16:21:40.663Z,7.60
2023-06-30T16:24:11.285Z,9.40
2023-06-30T16:26:42.039Z,7.70
2023-06-30T16:29:13.942Z,7.30
2023-06-30T16:31:44.975Z,7.70
2023-06-30T16:34:15.389Z,7.60
2023-06-30T16:36:48.073Z,7.20
2023-06-30T16:39:17.619Z,6.90
2023-06-30T16:41:47.902Z,7.30
2023-06-30T16:44:19.245Z,7.00
2023-06-30T16:46:49.383Z,6.90
2023-06-30T16:49:21.168Z,6.90
2023-06-30T16:51:52.831Z,7.00
2023-06-30T16:54:22.363Z,6.90
2023-06-30T16:56:52.474Z,7.10
2023-06-30T16:59:22.578Z,6.60
2023-06-30T17:01:56.147Z,6.80
2023-06-30T17:04:26.127Z,7.00
2023-06-30T17:06:56.270Z,6.60
2023-06-30T17:09:26.573Z,6.60
2023-06-30T17:11:56.617Z,7.00
2023-06-30T17:14:26.489Z,6.70
2023-06-30T17:16:56.534Z,6.90
2023-06-30T17:19:29.323Z,7.20
2023-06-30T17:21:59.856Z,7.00
2023-06-30T17:24:30.279Z,7.20
2023-06-30T17:27:02.306Z,7.50
2023-06-30T17:29:32.208Z,7.30
2023-06-30T17:32:02.785Z,7.50
2023-06-30T17:34:32.981Z,7.10
2023-06-30T17:37:12.387Z,7.70
2023-06-30T17:39:42.656Z,8.00
2023-06-30T17:42:13.370Z,7.60
2023-06-30T17:44:45.375Z,8.00
2023-06-30T17:47:15.437Z,7.80
2023-06-30T17:49:48.053Z,7.90
2023-06-30T17:52:18.114Z,7.80
2023-06-30T17:54:47.500Z,7.90
2023-06-30T17:57:17.108Z,8.00
2023-06-30T17:59:46.769Z,7.60
2023-06-30T18:02:16.942Z,8.60
2023-06-30T18:04:46.641Z,7.80
2023-06-30T18:07:15.947Z,8.00
2023-06-30T18:09:46.180Z,8.20
2023-06-30T18:12:15.664Z,8.00
2023-06-30T18:14:45.942Z,7.80
2023-06-30T18:17:16.692Z,8.20
2023-06-30T18:19:46.940Z,8.10
2023-06-30T18:22:16.270Z,8.60
2023-06-30T18:24:45.559Z,8.40
2023-06-30T18:27:15.033Z,8.40
2023-06-30T18:29:44.907Z,8.00
2023-06-30T18:32:14.614Z,7.50
2023-06-30T18:34:46.297Z,8.00
2023-06-30T18:37:16.150Z,8.90
2023-06-30T18:39:45.456Z,8.60
2023-06-30T18:42:15.475Z,8.10
2023-06-30T18:44:45.230Z,8.10
2023-06-30T18:47:15.546Z,8.00
2023-06-30T18:49:45.744Z,8.40
2023-06-30T18:52:16.421Z,8.40
2023-06-30T18:54:46.665Z,8.10
2023-06-30T18:57:16.395Z,8.20
2023-06-30T18:59:46.581Z,8.00
2023-06-30T19:02:16.417Z,7.80
2023-06-30T19:04:47.441Z,7.60
2023-06-30T19:07:17.191Z,7.80
2023-06-30T19:09:47.370Z,7.30
2023-06-30T19:12:17.179Z,6.70
2023-06-30T19:14:47.047Z,6.40
2023-06-30T19:17:17.075Z,5.40
2023-06-30T19:19:46.325Z,5.80
2023-06-30T19:22:16.232Z,5.60
2023-06-30T19:24:46.059Z,5.60
2023-06-30T19:27:17.665Z,5.10
2023-06-30T19:29:49.519Z,5.40
2023-06-30T19:32:19.718Z,5.70
2023-06-30T19:34:50.202Z,5.30
2023-06-30T19:37:20.380Z,5.40
2023-06-30T19:39:50.556Z,5.80
2023-06-30T19:42:21.525Z,5.60
2023-06-30T19:44:51.120Z,5.60
2023-06-30T19:47:23.030Z,5.30
2023-06-30T19:49:54.321Z,5.50
2023-06-30T19:52:24.689Z,5.50
2023-06-30T19:54:56.132Z,5.40
2023-06-30T19:57:27.190Z,5.30
2023-06-30T19:59:58.060Z,5.50
2023-06-30T20:02:29.015Z,5.80
2023-06-30T20:04:59.832Z,5.80
2023-06-30T20:07:30.821Z,5.90
2023-06-30T20:10:01.942Z,5.90
2023-06-30T20:12:34.424Z,5.80
2023-06-30T20:15:08.480Z,6.00
2023-06-30T20:17:39.775Z,5.80
2023-06-30T20:20:14.833Z,5.90
2023-06-30T20:22:46.704Z,5.60
2023-06-30T20:25:20.167Z,5.90
2023-06-30T20:27:53.485Z,5.60
2023-06-30T20:30:25.003Z,5.90
2023-06-30T20:32:55.492Z,6.00
2023-06-30T20:35:25.470Z,7.30
2023-06-30T20:37:57.062Z,6.40
2023-06-30T20:40:27.651Z,6.00
2023-06-30T20:42:59.233Z,6.10
2023-06-30T20:45:32.589Z,6.40
2023-06-30T20:48:04.053Z,6.40
2023-06-30T20:50:35.462Z,6.80
2023-06-30T20:53:05.656Z,6.80
2023-06-30T20:55:36.012Z,6.20
2023-06-30T20:58:06.505Z,6.50
2023-06-30T21:00:36.752Z,6.40
2023-06-30T21:03:09.311Z,6.50
2023-06-30T21:05:41.339Z,6.30
2023-06-30T21:08:12.742Z,6.80
2023-06-30T21:10:45.877Z,6.60
2023-06-30T21:13:17.111Z,6.10
2023-06-30T21:15:48.870Z,6.40
2023-06-30T21:18:24.083Z,6.60
2023-06-30T21:20:58.382Z,6.90
2023-06-30T21:23:32.843Z,7.00
2023-06-30T21:26:25.871Z,6.70
2023-06-30T21:28:56.689Z,7.60
2023-06-30T21:31:26.039Z,7.70
2023-06-30T21:33:55.785Z,7.80
2023-06-30T21:36:24.894Z,7.70
2023-06-30T21:38:54.474Z,7.50
2023-06-30T21:41:24.479Z,7.10
2023-06-30T21:43:54.597Z,6.60
2023-06-30T21:46:26.327Z,6.60
2023-06-30T21:48:58.456Z,6.50
2023-06-30T21:51:30.819Z,6.40
2023-06-30T21:54:06.336Z,7.00
2023-06-30T21:56:37.210Z,6.30
2023-06-30T21:59:08.715Z,6.60
2023-06-30T22:01:42.182Z,6.40
2023-06-30T22:04:15.350Z,6.00
2023-06-30T22:06:49.089Z,6.10
2023-06-30T22:09:19.608Z,6.40
2023-06-30T22:11:50.599Z,6.70
2023-06-30T22:14:21.520Z,6.80
2023-06-30T22:16:55.339Z,6.50
2023-06-30T22:19:28.422Z,6.20
2023-06-30T22:22:00.635Z,6.20
2023-06-30T22:24:30.603Z,6.00
2023-06-30T22:27:02.261Z,6.20
2023-06-30T22:29:34.074Z,6.00
2023-06-30T22:32:05.831Z,6.30
2023-06-30T22:34:36.824Z,6.70
2023-06-30T22:37:06.974Z,6.00
2023-06-30T22:39:36.055Z,6.20
2023-06-30T22:42:06.282Z,6.00
2023-06-30T22:44:35.358Z,6.20
2023-06-30T22:47:04.937Z,6.20
2023-06-30T22:49:34.199Z,5.90
2023-06-30T22:52:04.309Z,5.90
2023-06-30T22:54:35.863Z,6.30
2023-06-30T22:57:05.919Z,6.40
2023-06-30T22:59:35.354Z,7.50
2023-06-30T23:02:05.352Z,6.70
2023-06-30T23:04:34.971Z,6.10
2023-06-30T23:07:04.802Z,6.40
2023-06-30T23:09:33.952Z,5.70
2023-06-30T23:12:03.579Z,6.20
2023-06-30T23:14:32.832Z,5.60
2023-06-30T23:17:03.917Z,5.20
2023-06-30T23:19:36.218Z,5.10
2023-06-30T23:22:09.921Z,5.90
2023-06-30T23:24:40.287Z,6.10
2023-06-30T23:27:09.970Z,5.50
2023-06-30T23:29:39.557Z,5.70
2023-06-30T23:32:11.443Z,5.10
2023-06-30T23:34:41.631Z,5.30
2023-06-30T23:37:19.043Z,5.60
2023-06-30T23:39:53.014Z,5.70
2023-06-30T23:42:22.744Z,5.60
2023-06-30T23:44:52.891Z,5.50
2023-06-30T23:47:22.448Z,5.30
2023-06-30T23:49:51.669Z,5.40
2023-06-30T23:52:21.040Z,5.40
2023-06-30T23:54:50.694Z,5.20
2023-06-30T23:57:21.702Z,4.90
2023-06-30T23:59:52.282Z,5.40
